Terminal Aerodrome Forecast
Issued by NWS Memphis, TN

Home | Current Version | Previous Version | Text Only | Print | Product List | Glossary On
Versions: 1 2 3 4 5 6 7 8 9 10 11 12 13 14 15 16 17 18 19 20 21 22 23 24 25 26 27
477
FTUS44 KMEG 210858 AAC
TAFMEM
TAF AMD
KMEM 210858Z 2109/2212 VRB05KT P6SM -RA BKN060 OVC100
     FM211000 VRB05KT P6SM VCTS SCT015CB BKN060 BKN150
     FM211700 14006KT P6SM VCTS BKN025CB
     FM220100 15003KT P6SM VCSH SCT020 OVC100
     FM220400 15005KT P6SM SCT050 BKN070=

USA.gov is the U.S. government's official web portal to all federal, state and local government web resources and services.